Ashton, West Virginia
Current Conditions -  °F | °C
As of 5:15 PM on Saturday 25 Oct 2014 (Local Time) from K3I2 Reporting Station
Clear Clear  
Wind Chill: 21°   Ceiling: Unl
Heat Index: 21°   Visibility: 10mi
Dew Point: 12°   Wind: 7mph
Humidity: 56%   Direction: 230°SW
Pressure: 29.89"   Gusts: NA
Location:  38.62°N, 82.16°W
Report Text: K3I2 252115Z AUTO 23006KT 10SM CLR 21/12 A2989 RMK AO2
Loading
Personal Weather Stations






























Interactive Weather Map
Tropical Storm Tracking
New forecast layout! Learn more

10-Day Weather Forecast

Advertisements
Track Severe Weather on mobile